createdAt,value
2023-01-08T00:00:52.131Z,100242.13
2023-01-08T00:06:18.302Z,100252.69
2023-01-08T00:11:40.135Z,100227.41
2023-01-08T00:17:02.994Z,100214.31
2023-01-08T00:22:24.941Z,100209.28
2023-01-08T00:27:46.778Z,100202.91
2023-01-08T00:33:08.674Z,100208.19
2023-01-08T00:38:30.392Z,100202.06
2023-01-08T00:43:52.135Z,100200.94
2023-01-08T00:49:13.844Z,100218.69
2023-01-08T00:54:35.546Z,100230.38
2023-01-08T00:59:57.291Z,100229.81
2023-01-08T01:05:19.055Z,100232.28
2023-01-08T01:10:40.813Z,100233.41
2023-01-08T01:16:03.677Z,100235.84
2023-01-08T01:21:30.860Z,100227.00
2023-01-08T01:26:52.589Z,100223.63
2023-01-08T01:32:14.431Z,100207.53
2023-01-08T01:37:36.341Z,100192.25
2023-01-08T01:42:58.052Z,100181.69
2023-01-08T01:48:19.764Z,100184.75
2023-01-08T01:53:42.082Z,100176.69
2023-01-08T01:59:04.779Z,100180.84
2023-01-08T02:04:26.628Z,100186.66
2023-01-08T02:09:52.725Z,100184.16
2023-01-08T02:15:43.593Z,100181.66
2023-01-08T02:21:11.270Z,100180.81
2023-01-08T02:26:35.169Z,100182.19
2023-01-08T02:31:57.066Z,100176.94
2023-01-08T02:37:19.310Z,100166.94
2023-01-08T02:42:47.962Z,100163.59
2023-01-08T02:48:14.057Z,100157.47
2023-01-08T02:53:43.247Z,100159.44
2023-01-08T02:59:07.884Z,100153.56
2023-01-08T03:04:34.803Z,100143.56
2023-01-08T03:09:56.743Z,100144.69
2023-01-08T03:15:42.969Z,100133.59
2023-01-08T03:21:06.967Z,100152.44
2023-01-08T03:26:32.313Z,100141.59
2023-01-08T03:31:59.386Z,100138.00
2023-01-08T03:37:27.337Z,100118.03
2023-01-08T03:42:49.265Z,100138.81
2023-01-08T03:48:11.538Z,100148.25
2023-01-08T03:53:33.295Z,100137.41
2023-01-08T03:58:54.979Z,100127.41
2023-01-08T04:04:17.284Z,100139.59
2023-01-08T04:09:39.120Z,100126.84
2023-01-08T04:15:00.907Z,100114.09
2023-01-08T04:20:22.654Z,100113.22
2023-01-08T04:25:44.402Z,100129.31
2023-01-08T04:31:10.342Z,100127.38
2023-01-08T04:36:32.242Z,100107.41
2023-01-08T04:41:53.916Z,100129.56
2023-01-08T04:47:15.678Z,100129.00
2023-01-08T04:52:37.485Z,100135.66
2023-01-08T04:57:59.226Z,100117.38
2023-01-08T05:03:21.050Z,100121.25
2023-01-08T05:08:42.879Z,100116.81
2023-01-08T05:14:04.695Z,100103.19
2023-01-08T05:19:26.439Z,100112.38
2023-01-08T05:24:48.135Z,100115.38
2023-01-08T05:30:10.462Z,100114.84
2023-01-08T05:35:32.245Z,100104.56
2023-01-08T05:40:54.448Z,100105.97
2023-01-08T05:46:16.193Z,100108.97
2023-01-08T05:51:37.934Z,100105.38
2023-01-08T05:56:59.634Z,100113.72
2023-01-08T06:02:21.406Z,100113.97
2023-01-08T06:07:43.161Z,100118.97
2023-01-08T06:13:09.059Z,100124.50
2023-01-08T06:18:31.391Z,100126.69
2023-01-08T06:23:53.054Z,100115.03
2023-01-08T06:29:14.837Z,100116.13
2023-01-08T06:34:36.508Z,100113.38
2023-01-08T06:39:58.245Z,100114.50
2023-01-08T06:45:20.176Z,100118.00
2023-01-08T06:50:41.911Z,100105.38
2023-01-08T06:56:04.894Z,100120.44
2023-01-08T07:01:26.713Z,100114.06
2023-01-08T07:06:48.892Z,100127.97
2023-01-08T07:12:14.068Z,100124.41
2023-01-08T07:17:35.853Z,100119.97
2023-01-08T07:23:05.111Z,100109.97
2023-01-08T07:28:26.899Z,100109.97
2023-01-08T07:33:48.698Z,100103.56
2023-01-08T07:39:10.439Z,100110.47
2023-01-08T07:44:32.167Z,100095.47
2023-01-08T07:49:53.906Z,100087.69
2023-01-08T07:55:15.809Z,100072.69
2023-01-08T08:00:37.675Z,100069.06
2023-01-08T08:06:01.393Z,100082.06
2023-01-08T08:11:23.202Z,100072.06
2023-01-08T08:16:44.973Z,100070.66
2023-01-08T08:22:06.788Z,100070.63
2023-01-08T08:27:28.532Z,100072.28
2023-01-08T08:32:50.507Z,100072.00
2023-01-08T08:38:12.395Z,100060.59
2023-01-08T08:43:34.200Z,100059.72
2023-01-08T08:48:55.904Z,100053.06
2023-01-08T08:54:17.620Z,100049.44
2023-01-08T08:59:39.497Z,100038.88
2023-01-08T09:05:01.265Z,100028.59
2023-01-08T09:10:23.698Z,100021.94
2023-01-08T09:21:08.851Z,100018.88
2023-01-08T09:26:30.869Z,100015.81
2023-01-08T09:31:52.981Z,100024.41
2023-01-08T09:37:14.845Z,100016.38
2023-01-08T09:42:36.870Z,100018.56
2023-01-08T09:48:02.388Z,100015.03
2023-01-08T09:53:24.981Z,100008.72
2023-01-08T09:58:50.908Z,99999.66
2023-01-08T10:04:24.555Z,99999.41
2023-01-08T10:09:46.320Z,99996.38
2023-01-08T10:15:14.681Z,99986.09
2023-01-08T10:20:36.546Z,99986.97
2023-01-08T10:26:00.937Z,99981.41
2023-01-08T10:31:22.859Z,99975.56
2023-01-08T10:36:44.817Z,99970.56
2023-01-08T10:42:07.389Z,99960.56
2023-01-08T10:47:34.444Z,99966.97
2023-01-08T10:53:01.357Z,99957.25
2023-01-08T10:58:23.080Z,99945.59
2023-01-08T11:03:50.454Z,99937.28
2023-01-08T11:09:26.351Z,99929.78
2023-01-08T11:14:49.154Z,99932.84
2023-01-08T11:20:30.860Z,99925.06
2023-01-08T11:25:56.605Z,99928.38
2023-01-08T11:31:25.859Z,99922.56
2023-01-08T11:36:54.782Z,99941.69
2023-01-08T11:42:16.439Z,99930.34
2023-01-08T11:47:59.853Z,99915.06
2023-01-08T11:53:27.703Z,99905.34
2023-01-08T11:59:04.399Z,99900.34
2023-01-08T12:04:43.239Z,99898.97
2023-01-08T12:11:02.547Z,99885.66
2023-01-08T12:16:30.190Z,99880.09
2023-01-08T12:22:05.008Z,99881.78
2023-01-08T12:27:56.311Z,99869.84
2023-01-08T12:33:48.492Z,99864.84
2023-01-08T12:39:14.199Z,99859.63
2023-01-08T12:44:38.191Z,99857.38
2023-01-08T12:50:17.254Z,99864.03
2023-01-08T12:55:55.548Z,99845.19
2023-01-08T13:01:26.160Z,99837.41
2023-01-08T13:06:56.865Z,99844.63
2023-01-08T13:12:31.911Z,99826.88
2023-01-08T13:18:03.669Z,99825.78
2023-01-08T13:23:31.040Z,99826.31
2023-01-08T13:28:52.809Z,99812.44
2023-01-08T13:34:37.553Z,99803.56
2023-01-08T13:39:59.238Z,99791.34
2023-01-08T13:45:21.052Z,99788.03
2023-01-08T13:50:46.761Z,99767.53
2023-01-08T13:56:09.934Z,99752.56
2023-01-08T14:01:32.058Z,99740.34
2023-01-08T14:06:54.236Z,99728.44
2023-01-08T14:12:22.257Z,99723.97
2023-01-08T14:17:45.163Z,99715.59
2023-01-08T14:23:20.932Z,99706.94
2023-01-08T14:28:51.425Z,99692.50
2023-01-08T14:34:14.678Z,99696.09
2023-01-08T14:39:38.584Z,99687.72
2023-01-08T14:45:16.545Z,99696.34
2023-01-08T14:50:44.230Z,99683.03
2023-01-08T14:56:07.469Z,99694.97
2023-01-08T15:01:33.583Z,99681.97
2023-01-08T15:07:22.970Z,99676.41
2023-01-08T15:12:44.716Z,99680.34
2023-01-08T15:18:08.742Z,99678.69
2023-01-08T15:23:51.779Z,99670.72
2023-01-08T15:29:18.547Z,99667.38
2023-01-08T15:34:45.232Z,99663.25
2023-01-08T15:40:09.220Z,99656.06
2023-01-08T15:45:34.461Z,99656.06
2023-01-08T15:50:58.249Z,99643.03
2023-01-08T15:56:20.392Z,99631.13
2023-01-08T16:01:42.447Z,99630.56
2023-01-08T16:07:04.198Z,99626.13
2023-01-08T16:12:25.921Z,99620.59
2023-01-08T16:17:47.751Z,99617.53
2023-01-08T16:23:09.510Z,99614.47
2023-01-08T16:28:31.182Z,99605.03
2023-01-08T16:33:52.848Z,99602.75
2023-01-08T16:39:14.706Z,99598.22
2023-01-08T16:44:37.150Z,99579.78
2023-01-08T16:49:58.902Z,99573.66
2023-01-08T16:55:20.635Z,99565.88
2023-01-08T17:00:42.394Z,99569.47
2023-01-08T17:06:06.477Z,99563.13
2023-01-08T17:11:28.152Z,99555.66
2023-01-08T17:16:49.851Z,99552.09
2023-01-08T17:22:11.696Z,99551.56
2023-01-08T17:27:36.612Z,99536.38
2023-01-08T17:32:58.313Z,99531.97
2023-01-08T17:38:20.239Z,99527.50
2023-01-08T17:43:41.970Z,99516.09
2023-01-08T17:49:04.443Z,99510.16
2023-01-08T17:54:26.253Z,99513.16
2023-01-08T17:59:49.154Z,99495.88
2023-01-08T18:05:10.963Z,99472.25
2023-01-08T18:10:32.669Z,99473.59
2023-01-08T18:15:54.446Z,99477.97
2023-01-08T18:21:16.328Z,99459.91
2023-01-08T18:26:38.389Z,99459.91
2023-01-08T18:32:00.404Z,99454.78
2023-01-08T18:37:23.389Z,99455.94
2023-01-08T18:42:47.659Z,99449.25
2023-01-08T18:48:09.740Z,99444.25
2023-01-08T18:53:35.156Z,99436.84
2023-01-08T18:58:57.247Z,99432.84
2023-01-08T19:04:19.132Z,99437.22
2023-01-08T19:09:40.827Z,99419.38
2023-01-08T19:15:02.659Z,99418.78
2023-01-08T19:20:24.370Z,99399.25
2023-01-08T19:25:46.211Z,99394.50
2023-01-08T19:31:12.257Z,99378.09
2023-01-08T19:36:34.516Z,99370.38
2023-01-08T19:42:16.131Z,99356.78
2023-01-08T19:47:37.885Z,99357.06
2023-01-08T19:53:00.309Z,99346.56
2023-01-08T19:58:23.520Z,99342.13
2023-01-08T20:03:45.575Z,99333.06
2023-01-08T20:09:09.193Z,99323.41
2023-01-08T20:14:31.515Z,99314.53
2023-01-08T20:19:53.249Z,99321.47
2023-01-08T20:25:15.092Z,99313.97
2023-01-08T20:30:36.751Z,99303.94
2023-01-08T20:35:58.471Z,99299.00
2023-01-08T20:41:20.691Z,99288.50
2023-01-08T20:46:42.941Z,99294.16
2023-01-08T20:52:04.822Z,99296.22
2023-01-08T20:57:28.304Z,99289.41
2023-01-08T21:02:50.254Z,99278.94
2023-01-08T21:08:12.094Z,99286.69
2023-01-08T21:13:34.549Z,99270.59
2023-01-08T21:18:58.258Z,99268.84
2023-01-08T21:24:20.484Z,99270.88
2023-01-08T21:29:42.150Z,99273.41
2023-01-08T21:35:04.028Z,99269.09
2023-01-08T21:40:25.948Z,99258.91
2023-01-08T21:45:57.608Z,99260.00
2023-01-08T21:51:38.248Z,99318.38
2023-01-08T21:56:59.946Z,99310.00
2023-01-08T22:02:24.367Z,99302.13
2023-01-08T22:07:46.184Z,99287.56
2023-01-08T22:13:07.932Z,99284.13
2023-01-08T22:18:29.819Z,99277.91
2023-01-08T22:23:51.597Z,99289.41
2023-01-08T22:29:13.405Z,99288.97
2023-01-08T22:34:35.748Z,99301.22
2023-01-08T22:39:57.481Z,99291.59
2023-01-08T22:45:19.265Z,99298.69
2023-01-08T22:50:40.965Z,99303.78
2023-01-08T22:56:12.128Z,99299.13
2023-01-08T23:01:33.960Z,99314.22
2023-01-08T23:06:55.680Z,99323.41
2023-01-08T23:12:17.421Z,99333.47
2023-01-08T23:17:51.474Z,99335.19
2023-01-08T23:23:14.069Z,99348.28
2023-01-08T23:28:36.141Z,99340.00
2023-01-08T23:33:58.568Z,99339.78
2023-01-08T23:39:20.384Z,99341.50
2023-01-08T23:44:42.471Z,99352.34
2023-01-08T23:50:04.657Z,99347.38
2023-01-08T23:55:26.409Z,99352.66
